createdAt,value
2016-10-18T00:00:28.707Z,12.29
2016-10-18T00:01:28.362Z,12.17
2016-10-18T00:02:28.632Z,12.21
2016-10-18T00:03:28.600Z,12.23
2016-10-18T00:04:28.262Z,12.28
2016-10-18T00:05:28.223Z,12.2
2016-10-18T00:06:28.522Z,12.2
2016-10-18T00:07:28.455Z,12.28
2016-10-18T00:08:28.119Z,12.17
2016-10-18T00:09:28.082Z,12.21
2016-10-18T00:10:28.347Z,12.2
2016-10-18T00:11:28.351Z,12.19
2016-10-18T00:12:28.280Z,12.24
2016-10-18T00:13:28.245Z,12.19
2016-10-18T00:14:28.208Z,12.2
2016-10-18T00:15:27.867Z,12.28
2016-10-18T00:16:28.177Z,12.27
2016-10-18T00:17:27.799Z,12.19
2016-10-18T00:18:27.756Z,12.24
2016-10-18T00:19:28.029Z,12.21
2016-10-18T00:20:27.686Z,12.23
2016-10-18T00:21:27.963Z,12.24
2016-10-18T00:22:27.652Z,12.17
2016-10-18T00:23:27.891Z,12.2
2016-10-18T00:24:27.848Z,12.23
2016-10-18T00:25:27.510Z,12.2
2016-10-18T00:26:27.480Z,12.28
2016-10-18T00:27:27.440Z,12.19
2016-10-18T00:28:27.741Z,12.32
2016-10-18T00:29:27.669Z,12.27
2016-10-18T00:30:27.636Z,12.21
2016-10-18T00:31:27.300Z,12.31
2016-10-18T00:32:27.562Z,12.31
2016-10-18T00:33:27.228Z,12.29
2016-10-18T00:34:27.492Z,12.29
2016-10-18T00:35:26.853Z,12.32
2016-10-18T00:36:27.420Z,12.31
2016-10-18T00:37:27.383Z,12.29
2016-10-18T00:38:27.346Z,12.29
2016-10-18T00:39:26.707Z,12.28
2016-10-18T00:40:27.278Z,12.29
2016-10-18T00:41:26.979Z,12.31
2016-10-18T00:42:27.242Z,12.34
2016-10-18T00:43:26.871Z,12.34
2016-10-18T00:44:26.832Z,12.31
2016-10-18T00:45:27.099Z,12.35
2016-10-18T00:46:26.767Z,12.29
2016-10-18T00:47:27.031Z,12.32
2016-10-18T00:48:26.989Z,12.28
2016-10-18T00:49:26.961Z,12.29
2016-10-18T00:50:26.613Z,12.27
2016-10-18T00:51:26.882Z,12.31
2016-10-18T00:52:26.548Z,12.37
2016-10-18T00:53:26.509Z,12.24
2016-10-18T00:54:26.475Z,12.31
2016-10-18T00:55:26.442Z,12.24
2016-10-18T00:56:26.403Z,12.34
2016-10-18T00:57:26.064Z,12.31
2016-10-18T00:58:26.677Z,12.32
2016-10-18T00:59:26.298Z,12.31
2016-10-18T01:00:26.264Z,12.27
2016-10-18T01:01:26.532Z,12.28
2016-10-18T01:02:26.491Z,12.41
2016-10-18T01:03:26.454Z,12.39
2016-10-18T01:04:26.422Z,12.37
2016-10-18T01:05:26.081Z,12.42
2016-10-18T01:06:26.046Z,12.32
2016-10-18T01:07:26.314Z,12.39
2016-10-18T01:08:26.281Z,12.38
2016-10-18T01:09:25.938Z,12.45
2016-10-18T01:10:25.906Z,12.46
2016-10-18T01:11:25.871Z,12.47
2016-10-18T01:12:26.134Z,12.46
2016-10-18T01:13:25.797Z,12.47
2016-10-18T01:14:26.064Z,12.53
2016-10-18T01:15:25.720Z,12.41
2016-10-18T01:16:25.997Z,12.42
2016-10-18T01:17:25.960Z,12.5
2016-10-18T01:18:25.923Z,12.47
2016-10-18T01:19:25.583Z,12.42
2016-10-18T01:20:25.557Z,12.46
2016-10-18T01:21:25.511Z,12.47
2016-10-18T01:22:25.777Z,12.42
2016-10-18T01:23:25.437Z,12.38
2016-10-18T01:24:25.407Z,12.29
2016-10-18T01:25:25.667Z,12.32
2016-10-18T01:26:25.637Z,12.34
2016-10-18T01:27:25.601Z,12.29
2016-10-18T01:28:25.265Z,12.35
2016-10-18T01:29:25.531Z,12.29
2016-10-18T01:30:25.488Z,12.28
2016-10-18T01:31:25.454Z,12.32
2016-10-18T01:32:25.120Z,12.19
2016-10-18T01:33:25.083Z,12.24
2016-10-18T01:34:25.045Z,12.24
2016-10-18T01:35:25.318Z,12.27
2016-10-18T01:36:24.670Z,12.17
2016-10-18T01:37:25.240Z,12.16
2016-10-18T01:38:24.903Z,12.17
2016-10-18T01:39:24.865Z,12.17
2016-10-18T01:40:25.130Z,12.23
2016-10-18T01:41:24.799Z,12.16
2016-10-18T01:42:25.060Z,12.16
2016-10-18T01:43:24.721Z,12.19
2016-10-18T01:44:25.005Z,12.16
2016-10-18T01:45:24.955Z,12.19
2016-10-18T01:46:24.922Z,12.13
2016-10-18T01:47:24.928Z,12.09
2016-10-18T01:48:24.845Z,12.13
2016-10-18T01:49:24.814Z,12.14
2016-10-18T01:50:24.777Z,12.13
2016-10-18T01:51:24.737Z,12.05
2016-10-18T01:52:24.702Z,12.04
2016-10-18T01:53:24.669Z,12.12
2016-10-18T01:54:24.627Z,12.04
2016-10-18T01:55:24.592Z,12.13
2016-10-18T01:56:23.957Z,12.1
2016-10-18T01:57:24.221Z,12.07
2016-10-18T01:58:24.483Z,12.02
2016-10-18T01:59:24.452Z,12.05
2016-10-18T02:00:24.414Z,12.12
2016-10-18T02:01:24.378Z,12.04
2016-10-18T02:02:24.050Z,12.04
2016-10-18T02:03:24.341Z,12.09
2016-10-18T02:04:24.268Z,12.04
2016-10-18T02:05:23.933Z,12.1
2016-10-18T02:06:24.196Z,12.04
2016-10-18T02:07:23.555Z,12.02
2016-10-18T02:08:24.124Z,12.01
2016-10-18T02:09:23.792Z,11.99
2016-10-18T02:10:24.054Z,12.02
2016-10-18T02:11:24.016Z,12.1
2016-10-18T02:12:23.981Z,12.12
2016-10-18T02:13:23.948Z,12.05
2016-10-18T02:14:23.905Z,12.05
2016-10-18T02:15:23.571Z,12.13
2016-10-18T02:16:23.834Z,12.01
2016-10-18T02:17:23.807Z,12.09
2016-10-18T02:18:23.772Z,12.02
2016-10-18T02:19:23.732Z,12.02
2016-10-18T02:20:23.092Z,12.04
2016-10-18T02:21:23.360Z,12.1
2016-10-18T02:22:23.620Z,12.02
2016-10-18T02:23:22.979Z,12.12
2016-10-18T02:24:23.553Z,11.95
2016-10-18T02:25:23.208Z,12.02
2016-10-18T02:26:23.171Z,12.01
2016-10-18T02:27:23.445Z,11.99
2016-10-18T02:28:22.800Z,12.02
2016-10-18T02:29:23.367Z,11.98
2016-10-18T02:30:23.339Z,11.99
2016-10-18T02:31:23.294Z,12.02
2016-10-18T02:32:23.259Z,12.14
2016-10-18T02:33:23.223Z,12.02
2016-10-18T02:34:23.189Z,11.96
2016-10-18T02:35:23.153Z,12.02
2016-10-18T02:36:23.116Z,12.02
2016-10-18T02:37:23.084Z,12.04
2016-10-18T02:38:23.045Z,12.01
2016-10-18T02:39:23.038Z,12.02
2016-10-18T02:40:22.976Z,12.05
2016-10-18T02:41:22.935Z,12.09
2016-10-18T02:42:22.900Z,12.04
2016-10-18T02:43:22.867Z,12.1
2016-10-18T02:44:22.527Z,12.12
2016-10-18T02:45:22.791Z,12.04
2016-10-18T02:46:22.759Z,12.05
2016-10-18T02:47:22.726Z,12.04
2016-10-18T02:48:22.687Z,12.04
2016-10-18T02:49:22.347Z,12.13
2016-10-18T02:50:22.320Z,12.09
2016-10-18T02:51:22.575Z,12.1
2016-10-18T02:52:22.544Z,12.13
2016-10-18T02:53:22.504Z,12.09
2016-10-18T02:54:22.468Z,12.1
2016-10-18T02:55:22.177Z,12.09
2016-10-18T02:56:22.095Z,12.05
2016-10-18T02:57:22.358Z,12.07
2016-10-18T02:58:22.323Z,12.12
2016-10-18T02:59:21.982Z,12.12
2016-10-18T03:00:22.266Z,12.07
2016-10-18T03:01:22.214Z,12.09
2016-10-18T03:02:22.216Z,12.04
2016-10-18T03:03:21.844Z,12.01
2016-10-18T03:04:22.110Z,11.99
2016-10-18T03:05:21.795Z,12.05
2016-10-18T03:06:22.039Z,11.96
2016-10-18T03:07:21.693Z,11.99
2016-10-18T03:08:21.966Z,12.05
2016-10-18T03:09:21.922Z,12.02
2016-10-18T03:10:21.625Z,12.04
2016-10-18T03:11:21.549Z,11.95
2016-10-18T03:12:21.515Z,12.05
2016-10-18T03:13:21.784Z,11.98
2016-10-18T03:14:21.745Z,11.98
2016-10-18T03:15:21.713Z,12.01
2016-10-18T03:16:21.375Z,12.04
2016-10-18T03:17:21.637Z,12.01
2016-10-18T03:18:21.607Z,12.01
2016-10-18T03:19:21.570Z,11.95
2016-10-18T03:20:21.528Z,12.01
2016-10-18T03:21:20.891Z,12.05
2016-10-18T03:22:21.461Z,12.1
2016-10-18T03:23:21.424Z,12.12
2016-10-18T03:24:21.384Z,12.09
2016-10-18T03:25:21.385Z,12.07
2016-10-18T03:26:21.316Z,12.13
2016-10-18T03:27:21.283Z,12.17
2016-10-18T03:28:21.246Z,12.21
2016-10-18T03:29:21.204Z,12.2
2016-10-18T03:30:20.880Z,12.19
2016-10-18T03:31:21.135Z,12.23
2016-10-18T03:32:21.099Z,12.29
2016-10-18T03:33:21.065Z,12.21
2016-10-18T03:34:20.728Z,12.32
2016-10-18T03:35:21.004Z,12.17
2016-10-18T03:36:20.654Z,12.24
2016-10-18T03:37:20.918Z,12.2
2016-10-18T03:38:20.588Z,12.17
2016-10-18T03:39:20.851Z,12.2
2016-10-18T03:40:20.814Z,12.2
2016-10-18T03:41:20.776Z,12.17
2016-10-18T03:42:20.742Z,12.13
2016-10-18T03:43:20.399Z,12.2
2016-10-18T03:44:20.666Z,12.1
2016-10-18T03:45:20.635Z,12.13
2016-10-18T03:46:20.598Z,12.14
2016-10-18T03:47:20.559Z,12.17
2016-10-18T03:48:20.216Z,12.19
2016-10-18T03:49:20.190Z,12.27
2016-10-18T03:50:20.453Z,12.17
2016-10-18T03:51:20.415Z,12.13
2016-10-18T03:52:20.380Z,12.2
2016-10-18T03:53:20.344Z,12.21
2016-10-18T03:54:19.703Z,12.17
2016-10-18T03:55:20.274Z,12.19
2016-10-18T03:56:20.244Z,12.23
2016-10-18T03:57:20.198Z,12.14
2016-10-18T03:58:19.560Z,12.21
2016-10-18T03:59:20.134Z,12.13
2016-10-18T04:00:20.093Z,12.17
2016-10-18T04:01:20.053Z,12.2
2016-10-18T04:02:20.018Z,12.21
2016-10-18T04:03:19.685Z,12.17
2016-10-18T04:04:19.644Z,12.2
2016-10-18T04:05:19.917Z,12.14
2016-10-18T04:06:19.873Z,12.16
2016-10-18T04:07:19.841Z,12.19
2016-10-18T04:08:19.803Z,12.2
2016-10-18T04:09:19.766Z,12.14
2016-10-18T04:10:19.735Z,12.27
2016-10-18T04:11:19.695Z,12.19
2016-10-18T04:12:19.659Z,12.24
2016-10-18T04:13:19.323Z,12.17
2016-10-18T04:14:19.590Z,12.23
2016-10-18T04:15:19.260Z,12.34
2016-10-18T04:16:19.519Z,12.31
2016-10-18T04:17:19.490Z,12.28
2016-10-18T04:18:19.147Z,12.31
2016-10-18T04:19:19.109Z,12.34
2016-10-18T04:20:19.068Z,12.31
2016-10-18T04:21:19.337Z,12.27
2016-10-18T04:22:19.303Z,12.32
2016-10-18T04:23:18.963Z,12.35
2016-10-18T04:24:19.232Z,12.32
2016-10-18T04:25:19.199Z,12.32
2016-10-18T04:26:18.860Z,12.29
2016-10-18T04:27:19.124Z,12.28
2016-10-18T04:28:18.786Z,12.41
2016-10-18T04:29:19.051Z,12.45
2016-10-18T04:30:18.722Z,12.31
2016-10-18T04:31:18.977Z,12.41
2016-10-18T04:32:18.945Z,12.31
2016-10-18T04:33:18.607Z,12.31
2016-10-18T04:34:18.873Z,12.32
2016-10-18T04:35:18.841Z,12.39
2016-10-18T04:36:18.802Z,12.49
2016-10-18T04:37:18.766Z,12.39
2016-10-18T04:38:18.732Z,12.45
2016-10-18T04:39:18.393Z,12.42
2016-10-18T04:40:18.660Z,12.49
2016-10-18T04:41:18.621Z,12.41
2016-10-18T04:42:18.590Z,12.45
2016-10-18T04:43:18.550Z,12.52
2016-10-18T04:44:18.513Z,12.47
2016-10-18T04:45:18.182Z,12.49
2016-10-18T04:46:18.444Z,12.42
2016-10-18T04:47:18.409Z,12.38
2016-10-18T04:48:18.378Z,12.47
2016-10-18T04:49:18.337Z,12.42
2016-10-18T04:50:18.306Z,12.5
2016-10-18T04:51:18.265Z,12.46
2016-10-18T04:52:18.231Z,12.42
2016-10-18T04:53:18.197Z,12.47
2016-10-18T04:54:17.861Z,12.42
2016-10-18T04:55:18.120Z,12.46
2016-10-18T04:56:18.093Z,12.45
2016-10-18T04:57:17.750Z,12.42
2016-10-18T04:58:18.019Z,12.56
2016-10-18T04:59:17.676Z,12.59
2016-10-18T05:00:17.981Z,12.56
2016-10-18T05:01:17.910Z,12.57
2016-10-18T05:02:17.872Z,12.53
2016-10-18T05:03:17.581Z,12.53
2016-10-18T05:04:17.803Z,12.59
2016-10-18T05:05:17.764Z,12.54
2016-10-18T05:06:17.740Z,12.56
2016-10-18T05:07:17.393Z,12.53
2016-10-18T05:08:17.657Z,12.52
2016-10-18T05:09:17.321Z,12.54
2016-10-18T05:10:17.585Z,12.53
2016-10-18T05:11:17.261Z,12.54
2016-10-18T05:12:17.555Z,12.54
2016-10-18T05:13:17.176Z,12.53
2016-10-18T05:14:17.447Z,12.64
2016-10-18T05:15:17.107Z,12.59
2016-10-18T05:16:17.372Z,12.54
2016-10-18T05:17:17.334Z,12.56
2016-10-18T05:18:17.300Z,12.53
2016-10-18T05:19:16.662Z,12.54
2016-10-18T05:20:17.232Z,12.56
2016-10-18T05:21:17.200Z,12.52
2016-10-18T05:22:16.860Z,12.54
2016-10-18T05:23:16.826Z,12.57
2016-10-18T05:24:16.789Z,12.53
2016-10-18T05:25:17.063Z,12.57
2016-10-18T05:26:16.717Z,12.54
2016-10-18T05:27:17.017Z,12.53
2016-10-18T05:28:16.944Z,12.52
2016-10-18T05:29:16.909Z,12.56
2016-10-18T05:30:16.882Z,12.53
2016-10-18T05:31:16.871Z,12.56
2016-10-18T05:32:16.503Z,12.53
2016-10-18T05:33:16.769Z,12.56
2016-10-18T05:34:16.733Z,12.56
2016-10-18T05:35:16.705Z,12.52
2016-10-18T05:36:16.376Z,12.45
2016-10-18T05:37:16.627Z,12.54
2016-10-18T05:38:16.290Z,12.47
2016-10-18T05:39:16.560Z,12.41
2016-10-18T05:40:16.229Z,12.5
2016-10-18T05:41:16.487Z,12.47
2016-10-18T05:42:16.453Z,12.62
2016-10-18T05:43:16.418Z,12.54
2016-10-18T05:44:16.378Z,12.42
2016-10-18T05:45:16.347Z,12.49
2016-10-18T05:46:16.307Z,12.56
2016-10-18T05:47:15.971Z,12.45
2016-10-18T05:48:15.936Z,12.53
2016-10-18T05:49:16.202Z,12.56
2016-10-18T05:50:16.168Z,12.57
2016-10-18T05:51:16.135Z,12.59
2016-10-18T05:52:15.797Z,12.57
2016-10-18T05:53:16.059Z,12.57
2016-10-18T05:54:15.725Z,12.5
2016-10-18T05:55:15.685Z,12.5
2016-10-18T05:56:15.956Z,12.57
2016-10-18T05:57:15.614Z,12.57
2016-10-18T05:58:15.881Z,12.53
2016-10-18T05:59:15.851Z,12.5
2016-10-18T06:00:15.854Z,12.56
2016-10-18T06:01:15.174Z,12.53
2016-10-18T06:02:15.442Z,12.54
2016-10-18T06:03:15.707Z,12.54
2016-10-18T06:04:15.368Z,12.52
2016-10-18T06:05:15.637Z,12.54
2016-10-18T06:06:14.996Z,12.56
2016-10-18T06:07:15.567Z,12.5
2016-10-18T06:08:15.527Z,12.57
2016-10-18T06:09:15.498Z,12.62
2016-10-18T06:10:15.460Z,12.54
2016-10-18T06:11:15.120Z,12.62
2016-10-18T06:12:15.089Z,12.64
2016-10-18T06:13:15.053Z,12.71
2016-10-18T06:14:15.022Z,12.59
2016-10-18T06:15:15.279Z,12.68
2016-10-18T06:16:15.247Z,12.7
2016-10-18T06:17:15.210Z,12.7
2016-10-18T06:18:14.877Z,12.68
2016-10-18T06:19:15.147Z,12.74
2016-10-18T06:20:14.503Z,12.71
2016-10-18T06:21:15.069Z,12.75
2016-10-18T06:22:15.037Z,12.77
2016-10-18T06:23:15.001Z,12.82
2016-10-18T06:24:14.667Z,12.75
2016-10-18T06:25:14.627Z,12.78
2016-10-18T06:26:14.590Z,12.79
2016-10-18T06:27:14.862Z,12.79
2016-10-18T06:28:14.521Z,12.82
2016-10-18T06:29:14.789Z,12.86
2016-10-18T06:30:14.757Z,12.78
2016-10-18T06:31:14.747Z,12.82
2016-10-18T06:32:14.691Z,12.85
2016-10-18T06:33:14.643Z,12.86
2016-10-18T06:34:14.612Z,12.89
2016-10-18T06:35:14.572Z,12.93
2016-10-18T06:36:14.553Z,12.9
2016-10-18T06:37:14.503Z,12.96
2016-10-18T06:38:14.165Z,13.04
2016-10-18T06:39:14.436Z,12.93
2016-10-18T06:40:14.401Z,12.92
2016-10-18T06:41:14.370Z,12.89
2016-10-18T06:42:14.333Z,12.95
2016-10-18T06:43:13.995Z,13.07
2016-10-18T06:44:14.263Z,13.03
2016-10-18T06:45:13.926Z,13.03
2016-10-18T06:46:13.888Z,13.01
2016-10-18T06:47:14.164Z,12.96
2016-10-18T06:48:13.816Z,13
2016-10-18T06:49:14.082Z,13.03
2016-10-18T06:50:14.055Z,12.95
2016-10-18T06:51:14.016Z,13.04
2016-10-18T06:52:13.676Z,13.07
2016-10-18T06:53:13.944Z,12.9
2016-10-18T06:54:13.910Z,13.05
2016-10-18T06:55:13.872Z,13.03
2016-10-18T06:56:13.535Z,13.04
2016-10-18T06:57:13.809Z,13.07
2016-10-18T06:58:13.471Z,13.05
2016-10-18T06:59:13.765Z,13.03
2016-10-18T07:00:13.430Z,13.22
2016-10-18T07:01:13.664Z,13.17
2016-10-18T07:02:13.053Z,13.45
2016-10-18T07:03:13.288Z,13.52
2016-10-18T07:04:13.562Z,13.52
2016-10-18T07:05:13.219Z,13.75
2016-10-18T07:06:13.184Z,14.51
2016-10-18T07:07:13.455Z,15.5
2016-10-18T07:08:13.416Z,15.78
2016-10-18T07:09:13.386Z,16.3
2016-10-18T07:10:13.049Z,16.79
2016-10-18T07:11:13.012Z,17.22
2016-10-18T07:12:12.984Z,17.3
2016-10-18T07:13:13.253Z,17.34
2016-10-18T07:14:13.215Z,17.44
2016-10-18T07:15:12.875Z,18.08
2016-10-18T07:16:12.845Z,19.04
2016-10-18T07:17:13.111Z,19.14
2016-10-18T07:18:13.082Z,19.22
2016-10-18T07:19:13.049Z,19.07
2016-10-18T07:20:12.719Z,18.94
2016-10-18T07:21:12.682Z,18.65
2016-10-18T07:22:12.956Z,18.36
2016-10-18T07:23:12.926Z,18.05
2016-10-18T07:24:12.589Z,17.82
2016-10-18T07:25:12.855Z,17.56
2016-10-18T07:26:12.225Z,17.4
2016-10-18T07:27:12.530Z,17.14
2016-10-18T07:28:12.766Z,16.93
2016-10-18T07:29:12.429Z,16.67
2016-10-18T07:30:12.397Z,16.56
2016-10-18T07:31:12.668Z,16.33
2016-10-18T07:32:12.631Z,16.3
2016-10-18T07:33:12.603Z,16.17
2016-10-18T07:34:12.565Z,16.12
2016-10-18T07:35:12.538Z,16.08
2016-10-18T07:36:12.506Z,16.01
2016-10-18T07:37:12.471Z,15.96
2016-10-18T07:38:12.447Z,16.02
2016-10-18T07:39:12.412Z,16.01
2016-10-18T07:40:12.381Z,15.97
2016-10-18T07:41:12.346Z,16
2016-10-18T07:42:12.010Z,16.02
2016-10-18T07:43:11.983Z,16.05
2016-10-18T07:44:12.247Z,16
2016-10-18T07:45:12.212Z,15.89
2016-10-18T07:46:12.180Z,15.92
2016-10-18T07:47:11.853Z,15.87
2016-10-18T07:48:11.816Z,15.78
2016-10-18T07:49:11.784Z,15.71
2016-10-18T07:50:12.076Z,15.68
2016-10-18T07:51:12.057Z,15.69
2016-10-18T07:52:11.380Z,15.6
2016-10-18T07:53:11.954Z,15.65
2016-10-18T07:54:11.618Z,15.54
2016-10-18T07:55:11.892Z,15.64
2016-10-18T07:56:11.857Z,15.51
2016-10-18T07:57:11.824Z,15.51
2016-10-18T07:58:11.793Z,15.5
2016-10-18T07:59:11.758Z,15.49
2016-10-18T08:00:11.721Z,15.56
2016-10-18T08:01:11.691Z,15.64
2016-10-18T08:02:11.661Z,15.6
2016-10-18T08:03:11.630Z,15.74
2016-10-18T08:04:11.595Z,15.75
2016-10-18T08:05:11.264Z,15.75
2016-10-18T08:06:11.526Z,15.86
2016-10-18T08:07:11.194Z,15.92
2016-10-18T08:08:11.460Z,15.97
2016-10-18T08:09:11.429Z,16.08
2016-10-18T08:10:11.396Z,16.23
2016-10-18T08:11:11.364Z,16.17
2016-10-18T08:12:11.333Z,16.33
2016-10-18T08:13:11.297Z,16.56
2016-10-18T08:14:11.265Z,16.52
2016-10-18T08:15:11.233Z,16.57
2016-10-18T08:16:11.204Z,16.58
2016-10-18T08:17:10.867Z,16.56
2016-10-18T08:18:10.833Z,16.53
2016-10-18T08:19:10.802Z,16.7
2016-10-18T08:20:10.765Z,16.61
2016-10-18T08:21:11.038Z,16.56
2016-10-18T08:22:11.007Z,16.48
2016-10-18T08:23:10.672Z,16.52
2016-10-18T08:24:10.641Z,16.42
2016-10-18T08:25:10.910Z,16.48
2016-10-18T08:26:10.877Z,16.46
2016-10-18T08:27:10.843Z,16.5
2016-10-18T08:28:10.812Z,16.96
2016-10-18T08:29:10.786Z,17.52
2016-10-18T08:30:10.748Z,18.03
2016-10-18T08:31:10.414Z,18.58
2016-10-18T08:32:10.679Z,19.02
2016-10-18T08:33:10.387Z,19.16
2016-10-18T08:34:10.616Z,19.02
2016-10-18T08:35:10.585Z,18.99
2016-10-18T08:36:10.258Z,18.88
2016-10-18T08:37:10.532Z,18.75
2016-10-18T08:38:10.528Z,18.57
2016-10-18T08:39:10.463Z,18.44
2016-10-18T08:40:10.432Z,18.33
2016-10-18T08:41:09.799Z,18.27
2016-10-18T08:42:10.367Z,18.37
2016-10-18T08:43:10.038Z,18.58
2016-10-18T08:44:10.005Z,18.62
2016-10-18T08:45:09.976Z,18.57
2016-10-18T08:46:10.245Z,18.52
2016-10-18T08:47:10.215Z,18.5
2016-10-18T08:48:09.881Z,18.44
2016-10-18T08:49:09.853Z,18.45
2016-10-18T08:50:10.164Z,18.57
2016-10-18T08:51:10.092Z,18.98
2016-10-18T08:52:10.065Z,19.41
2016-10-18T08:53:10.026Z,19.88
2016-10-18T08:54:09.694Z,20.84
2016-10-18T08:55:09.976Z,22.14
2016-10-18T08:56:09.937Z,23.39
2016-10-18T08:57:09.613Z,24.42
2016-10-18T08:58:09.880Z,24.71
2016-10-18T08:59:09.849Z,24.85
2016-10-18T09:00:09.818Z,24.71
2016-10-18T09:01:09.505Z,24.47
2016-10-18T09:02:09.804Z,24.22
2016-10-18T09:03:09.441Z,23.85
2016-10-18T09:04:09.713Z,23.33
2016-10-18T09:05:09.080Z,22.77
2016-10-18T09:06:09.660Z,22.33
2016-10-18T09:07:09.668Z,21.91
2016-10-18T09:08:09.599Z,21.34
2016-10-18T09:09:08.966Z,20.99
2016-10-18T09:10:09.546Z,20.59
2016-10-18T09:11:09.210Z,20.29
2016-10-18T09:12:09.193Z,19.92
2016-10-18T09:13:09.161Z,19.74
2016-10-18T09:14:09.429Z,19.48
2016-10-18T09:15:09.403Z,19.36
2016-10-18T09:16:09.070Z,19.59
2016-10-18T09:17:09.043Z,20.29
2016-10-18T09:18:09.014Z,21.21
2016-10-18T09:19:08.985Z,21.84
2016-10-18T09:20:09.294Z,22.39
2016-10-18T09:21:08.924Z,22.85
2016-10-18T09:22:09.202Z,23.69
2016-10-18T09:23:09.171Z,24.37
2016-10-18T09:24:08.839Z,25.47
2016-10-18T09:25:08.812Z,26.66
2016-10-18T09:26:08.781Z,27.67
2016-10-18T09:27:09.058Z,28.48
2016-10-18T09:28:08.759Z,29.42
2016-10-18T09:29:09.006Z,30.01
2016-10-18T09:30:08.692Z,30.29
2016-10-18T09:31:08.669Z,30.57
2016-10-18T09:32:08.934Z,30.07
2016-10-18T09:33:08.916Z,29.02
2016-10-18T09:34:08.883Z,28.46
2016-10-18T09:35:08.560Z,28.56
2016-10-18T09:36:08.837Z,29.05
2016-10-18T09:37:08.510Z,29.57
2016-10-18T09:38:08.794Z,30.37
2016-10-18T09:39:08.765Z,30.45
2016-10-18T09:40:08.739Z,30.02
2016-10-18T09:41:08.117Z,29.24
2016-10-18T09:42:08.691Z,28.48
2016-10-18T09:43:08.373Z,27.69
2016-10-18T09:44:08.647Z,26.82
2016-10-18T09:45:08.318Z,26.01
2016-10-18T09:46:08.602Z,25.38
2016-10-18T09:47:07.968Z,24.81
2016-10-18T09:48:08.551Z,24.39
2016-10-18T09:49:08.527Z,24.15
2016-10-18T09:50:08.548Z,24.53
2016-10-18T09:51:08.471Z,25.15
2016-10-18T09:52:08.456Z,25.35
2016-10-18T09:53:08.428Z,25.28
2016-10-18T09:54:08.095Z,25.39
2016-10-18T09:55:08.070Z,25.47
2016-10-18T09:56:08.348Z,25.25
2016-10-18T09:57:08.327Z,24.83
2016-10-18T09:58:08.342Z,24.61
2016-10-18T09:59:08.271Z,24.43
2016-10-18T10:00:08.243Z,24.27
2016-10-18T10:01:08.225Z,24.12
2016-10-18T10:02:07.590Z,23.9
2016-10-18T10:03:07.869Z,23.46
2016-10-18T10:04:08.142Z,23.16
2016-10-18T10:05:07.816Z,23.31
2016-10-18T10:06:08.091Z,23.32
2016-10-18T10:07:07.758Z,23.09
2016-10-18T10:08:08.035Z,22.97
2016-10-18T10:09:07.717Z,22.75
2016-10-18T10:10:07.984Z,22.52
2016-10-18T10:11:07.962Z,22.21
2016-10-18T10:12:07.625Z,22
2016-10-18T10:13:07.901Z,21.8
2016-10-18T10:14:07.887Z,21.83
2016-10-18T10:15:07.546Z,22.22
2016-10-18T10:16:07.820Z,23.4
2016-10-18T10:17:07.803Z,24.76
2016-10-18T10:18:07.466Z,26.12
2016-10-18T10:19:07.737Z,27.29
2016-10-18T10:20:07.715Z,28.36
2016-10-18T10:21:07.723Z,29.31
2016-10-18T10:22:07.665Z,30.24
2016-10-18T10:23:07.333Z,30.89
2016-10-18T10:24:07.311Z,31.26
2016-10-18T10:25:07.585Z,30.99
2016-10-18T10:26:07.267Z,30.64
2016-10-18T10:27:07.273Z,30.07
2016-10-18T10:28:07.213Z,29.31
2016-10-18T10:29:07.491Z,28.43
2016-10-18T10:30:07.166Z,27.63
2016-10-18T10:31:07.438Z,27.09
2016-10-18T10:32:07.417Z,27.13
2016-10-18T10:33:07.391Z,27.6
2016-10-18T10:34:07.374Z,27.78
2016-10-18T10:35:07.343Z,27.88
2016-10-18T10:36:07.315Z,28.18
2016-10-18T10:37:07.290Z,28.62
2016-10-18T10:38:07.270Z,29.21
2016-10-18T10:39:07.281Z,29.63
2016-10-18T10:40:07.227Z,29.41
2016-10-18T10:41:07.259Z,28.96
2016-10-18T10:42:07.171Z,28.93
2016-10-18T10:43:07.150Z,29.14
2016-10-18T10:44:06.825Z,29.11
2016-10-18T10:45:07.098Z,29.31
2016-10-18T10:46:07.078Z,29.65
2016-10-18T10:47:07.054Z,30.01
2016-10-18T10:48:06.726Z,30.46
2016-10-18T10:49:06.708Z,30.72
2016-10-18T10:50:06.982Z,30.83
2016-10-18T10:51:06.664Z,31.06
2016-10-18T10:52:06.941Z,31.07
2016-10-18T10:53:06.922Z,31.17
2016-10-18T10:54:06.902Z,31.13
2016-10-18T10:55:06.876Z,31.02
2016-10-18T10:56:06.859Z,30.98
2016-10-18T10:57:06.832Z,30.99
2016-10-18T10:58:06.814Z,31.07
2016-10-18T10:59:06.506Z,31.09
2016-10-18T11:00:06.765Z,31.02
2016-10-18T11:01:06.444Z,30.95
2016-10-18T11:02:06.725Z,30.95
2016-10-18T11:03:06.738Z,30.82
2016-10-18T11:04:06.377Z,30.42
2016-10-18T11:05:06.659Z,29.95
2016-10-18T11:06:06.337Z,29.73
2016-10-18T11:07:06.614Z,29.43
2016-10-18T11:08:06.589Z,29.05
2016-10-18T11:09:06.281Z,28.93
2016-10-18T11:10:06.546Z,28.86
2016-10-18T11:11:06.222Z,28.95
2016-10-18T11:12:06.500Z,28.9
2016-10-18T11:13:06.482Z,28.96
2016-10-18T11:14:06.454Z,28.85
2016-10-18T11:15:06.127Z,28.55
2016-10-18T11:16:06.105Z,28.52
2016-10-18T11:17:06.089Z,28.33
2016-10-18T11:18:06.059Z,27.88
2016-10-18T11:19:06.343Z,27.54
2016-10-18T11:20:05.716Z,27.09
2016-10-18T11:21:06.037Z,26.89
2016-10-18T11:22:06.268Z,26.63
2016-10-18T11:23:06.238Z,26.2
2016-10-18T11:24:06.219Z,25.99
2016-10-18T11:25:05.890Z,25.69
2016-10-18T11:26:06.167Z,25.47
2016-10-18T11:27:05.840Z,25.23
2016-10-18T11:28:06.119Z,24.84
2016-10-18T11:29:05.784Z,24.49
2016-10-18T11:30:06.071Z,24.28
2016-10-18T11:31:06.043Z,23.94
2016-10-18T11:32:06.017Z,23.88
2016-10-18T11:33:05.994Z,23.6
2016-10-18T11:34:05.664Z,23.35
2016-10-18T11:35:05.944Z,23.13
2016-10-18T11:36:05.915Z,22.95
2016-10-18T11:37:05.882Z,22.86
2016-10-18T11:38:05.557Z,22.7
2016-10-18T11:39:05.232Z,22.61
2016-10-18T11:40:05.816Z,22.39
2016-10-18T11:41:05.827Z,22.3
2016-10-18T11:42:05.759Z,22.12
2016-10-18T11:43:05.771Z,21.99
2016-10-18T11:44:05.710Z,21.86
2016-10-18T11:45:05.671Z,21.62
2016-10-18T11:46:05.647Z,21.35
2016-10-18T11:47:05.615Z,21.24
2016-10-18T11:48:05.587Z,21.09
2016-10-18T11:49:04.954Z,20.98
2016-10-18T11:50:05.538Z,20.88
2016-10-18T11:51:05.498Z,20.84
2016-10-18T11:52:05.473Z,20.69
2016-10-18T11:53:05.443Z,20.62
2016-10-18T11:54:05.120Z,20.42
2016-10-18T11:55:05.088Z,20.31
2016-10-18T11:56:05.062Z,20.2
2016-10-18T11:57:05.341Z,20.01
2016-10-18T11:58:05.306Z,20.03
2016-10-18T11:59:05.326Z,19.95
2016-10-18T12:00:04.944Z,19.74
2016-10-18T12:01:04.917Z,19.58
2016-10-18T12:02:05.189Z,19.39
2016-10-18T12:03:05.158Z,19.18
2016-10-18T12:04:05.128Z,19.21
2016-10-18T12:05:04.500Z,19.18
2016-10-18T12:06:05.111Z,19.06
2016-10-18T12:07:05.072Z,18.98
2016-10-18T12:08:05.007Z,18.99
2016-10-18T12:09:04.974Z,18.95
2016-10-18T12:10:04.684Z,18.88
2016-10-18T12:11:04.921Z,18.65
2016-10-18T12:12:04.891Z,18.58
2016-10-18T12:13:04.554Z,18.6
2016-10-18T12:14:04.828Z,18.58
2016-10-18T12:15:04.794Z,18.58
2016-10-18T12:16:04.764Z,18.65
2016-10-18T12:17:04.772Z,18.63
2016-10-18T12:18:04.745Z,18.54
2016-10-18T12:19:04.675Z,18.58
2016-10-18T12:20:04.650Z,18.63
2016-10-18T12:21:04.313Z,18.55
2016-10-18T12:22:04.584Z,18.54
2016-10-18T12:23:04.549Z,18.47
2016-10-18T12:24:04.518Z,18.48
2016-10-18T12:25:03.891Z,18.55
2016-10-18T12:26:04.457Z,18.52
2016-10-18T12:27:04.431Z,18.52
2016-10-18T12:28:04.397Z,18.41
2016-10-18T12:29:04.371Z,18.54
2016-10-18T12:30:04.031Z,18.57
2016-10-18T12:31:04.305Z,18.62
2016-10-18T12:32:03.981Z,18.6
2016-10-18T12:33:04.249Z,18.63
2016-10-18T12:34:04.213Z,18.75
2016-10-18T12:35:04.181Z,18.88
2016-10-18T12:36:04.185Z,19
2016-10-18T12:37:04.120Z,18.99
2016-10-18T12:38:04.096Z,19.02
2016-10-18T12:39:04.058Z,19.1
2016-10-18T12:40:04.032Z,18.98
2016-10-18T12:41:03.695Z,18.9
2016-10-18T12:42:03.671Z,18.84
2016-10-18T12:43:03.671Z,18.78
2016-10-18T12:44:03.923Z,18.72
2016-10-18T12:45:03.572Z,18.69
2016-10-18T12:46:03.848Z,18.7
2016-10-18T12:47:03.509Z,18.7
2016-10-18T12:48:03.488Z,18.65
2016-10-18T12:49:03.756Z,18.6
2016-10-18T12:50:03.414Z,18.65
2016-10-18T12:51:03.688Z,18.66
2016-10-18T12:52:03.364Z,18.62
2016-10-18T12:53:03.625Z,18.62
2016-10-18T12:54:03.598Z,18.62
2016-10-18T12:55:03.564Z,18.57